Time;durP1;ratioP1;P1;durP2;ratioP2;P2;SDS_P1;SDS_P2;PMS_P1;PMS_P2;Temp;Humidity;BMP_temperature;BMP_pressure;BME280_temperature;BME280_humidity;BME280_pressure;Samples;Min_cycle;Max_cycle;Signal;HPM_P1;HPM_P2
2023/08/05 00:00:26;;;;;;;11.10;6.32;;;;;;;;;;4406261;32;317913;-84
2023/08/05 00:02:58;;;;;;;15.18;9.75;;;;;;;;;;4418367;32;318105;-81
2023/08/05 00:05:28;;;;;;;13.30;10.43;;;;;;;;;;4395212;32;316862;-83
2023/08/05 00:07:55;;;;;;;14.02;11.45;;;;;;;;;;4414403;32;318829;-84
2023/08/05 00:10:24;;;;;;;11.48;8.43;;;;;;;;;;4402212;32;319013;-88
2023/08/05 00:12:55;;;;;;;11.02;7.57;;;;;;;;;;4414802;32;317569;-88
2023/08/05 00:15:24;;;;;;;9.00;5.93;;;;;;;;;;4404141;32;317837;-81
2023/08/05 00:17:51;;;;;;;8.15;6.53;;;;;;;;;;4416839;32;316640;-81
2023/08/05 00:20:20;;;;;;;7.87;7.17;;;;;;;;;;4405018;32;328184;-81
2023/08/05 00:22:47;;;;;;;8.20;6.70;;;;;;;;;;4415897;32;332365;-81
2023/08/05 00:25:15;;;;;;;7.72;6.22;;;;;;;;;;4404465;32;316839;-92
2023/08/05 00:27:42;;;;;;;13.80;6.80;;;;;;;;;;4418385;32;316518;-92
2023/08/05 00:30:10;;;;;;;8.43;5.65;;;;;;;;;;4408405;32;317730;-92
2023/08/05 00:32:37;;;;;;;10.32;6.68;;;;;;;;;;4418493;32;315562;-91
2023/08/05 00:35:05;;;;;;;11.40;6.05;;;;;;;;;;4417020;32;318008;-82
2023/08/05 00:37:35;;;;;;;7.07;5.80;;;;;;;;;;4403082;32;416903;-83
2023/08/05 00:40:03;;;;;;;8.68;6.68;;;;;;;;;;4416145;32;316746;-81
2023/08/05 00:42:45;;;;;;;7.03;6.32;;;;;;;;;;4405169;32;352490;-86
2023/08/05 00:45:15;;;;;;;7.60;5.93;;;;;;;;;;4399642;32;363976;-87
2023/08/05 00:47:43;;;;;;;10.55;6.60;;;;;;;;;;4413908;32;315551;-88
2023/08/05 00:50:15;;;;;;;11.30;6.25;;;;;;;;;;4401575;32;316629;-88
2023/08/05 00:52:55;;;;;;;8.93;6.25;;;;;;;;;;4414145;32;321557;-88
2023/08/05 00:55:30;;;;;;;7.20;6.07;;;;;;;;;;4398874;32;316035;-85
2023/08/05 00:57:58;;;;;;;10.77;6.50;;;;;;;;;;4413988;32;315593;-84
2023/08/05 01:00:27;;;;;;;6.70;6.07;;;;;;;;;;4405877;32;318167;-89
2023/08/05 01:02:57;;;;;;;7.65;6.95;;;;;;;;;;4415999;32;316795;-87
2023/08/05 01:05:29;;;;;;;7.68;5.95;;;;;;;;;;4401386;32;316517;-89
2023/08/05 01:08:01;;;;;;;7.50;6.70;;;;;;;;;;4415577;32;316722;-87
2023/08/05 01:10:32;;;;;;;6.50;5.85;;;;;;;;;;4396036;32;316488;-86
2023/08/05 01:13:01;;;;;;;7.03;6.32;;;;;;;;;;4410253;32;315561;-85
2023/08/05 01:15:32;;;;;;;11.82;7.45;;;;;;;;;;4398210;32;316652;-87
2023/08/05 01:18:02;;;;;;;7.60;6.87;;;;;;;;;;4412459;32;331493;-87
2023/08/05 01:20:41;;;;;;;8.90;6.07;;;;;;;;;;4403379;32;317152;-90
2023/08/05 01:23:18;;;;;;;9.00;7.03;;;;;;;;;;4393610;32;316221;-87
2023/08/05 01:25:50;;;;;;;11.38;6.85;;;;;;;;;;4409085;32;315814;-88
2023/08/05 01:28:21;;;;;;;10.05;6.62;;;;;;;;;;4401469;32;316688;-85
2023/08/05 01:30:54;;;;;;;7.07;6.00;;;;;;;;;;4412779;32;316670;-85
2023/08/05 01:33:24;;;;;;;6.85;5.97;;;;;;;;;;4400614;32;316736;-88
2023/08/05 01:35:55;;;;;;;7.05;6.30;;;;;;;;;;4412469;32;316557;-92
2023/08/05 01:38:28;;;;;;;7.37;6.60;;;;;;;;;;4405147;32;316739;-87
2023/08/05 01:41:02;;;;;;;11.95;6.72;;;;;;;;;;4411194;32;320399;-87
2023/08/05 01:43:30;;;;;;;6.25;5.60;;;;;;;;;;4400814;32;317827;-88
2023/08/05 01:45:58;;;;;;;9.73;6.20;;;;;;;;;;4412965;32;316503;-83
2023/08/05 01:48:27;;;;;;;7.80;6.97;;;;;;;;;;4398132;32;315732;-85
2023/08/05 01:50:56;;;;;;;7.90;6.75;;;;;;;;;;4406769;32;317182;-83
2023/08/05 01:53:24;;;;;;;7.72;6.43;;;;;;;;;;4402565;32;317381;-85
2023/08/05 01:55:58;;;;;;;8.13;5.97;;;;;;;;;;4411518;32;316666;-87
2023/08/05 01:58:30;;;;;;;10.20;7.90;;;;;;;;;;4404661;32;316732;-87
2023/08/05 02:01:00;;;;;;;8.05;7.05;;;;;;;;;;4415360;32;316878;-88
2023/08/05 02:03:29;;;;;;;11.35;6.95;;;;;;;;;;4403977;32;358740;-87
2023/08/05 02:05:58;;;;;;;7.70;6.95;;;;;;;;;;4417357;32;317636;-87
2023/08/05 02:08:26;;;;;;;10.65;7.03;;;;;;;;;;4405246;32;340700;-84
2023/08/05 02:10:54;;;;;;;10.63;6.93;;;;;;;;;;4415538;32;317700;-89
2023/08/05 02:13:34;;;;;;;9.10;7.07;;;;;;;;;;4398250;32;316695;-92
2023/08/05 02:16:05;;;;;;;7.78;6.97;;;;;;;;;;4414223;32;316468;-86
2023/08/05 02:18:33;;;;;;;7.93;6.82;;;;;;;;;;4395651;32;416130;-87
2023/08/05 02:21:01;;;;;;;9.27;8.10;;;;;;;;;;4415388;32;316551;-87
2023/08/05 02:23:28;;;;;;;10.73;7.20;;;;;;;;;;4407417;32;316599;-84
2023/08/05 02:25:56;;;;;;;10.68;7.43;;;;;;;;;;4417779;32;316792;-84
2023/08/05 02:28:23;;;;;;;9.85;8.27;;;;;;;;;;4407377;32;318007;-84
2023/08/05 02:30:52;;;;;;;12.40;7.60;;;;;;;;;;4416646;32;350179;-81
2023/08/05 02:33:20;;;;;;;13.07;7.80;;;;;;;;;;4405557;32;317824;-84
2023/08/05 02:35:47;;;;;;;8.88;7.28;;;;;;;;;;4417095;32;317731;-82
2023/08/05 02:38:15;;;;;;;8.98;7.90;;;;;;;;;;4407262;32;316922;-82
2023/08/05 02:40:42;;;;;;;10.30;8.18;;;;;;;;;;4418308;32;316595;-83
2023/08/05 02:43:10;;;;;;;8.60;7.65;;;;;;;;;;4407848;32;328780;-81
2023/08/05 02:45:37;;;;;;;9.85;8.45;;;;;;;;;;4418075;32;315454;-81
2023/08/05 02:48:07;;;;;;;10.68;7.12;;;;;;;;;;4417494;32;317077;-81
2023/08/05 02:50:36;;;;;;;9.98;8.23;;;;;;;;;;4400409;32;416376;-86
2023/08/05 02:53:04;;;;;;;11.15;7.57;;;;;;;;;;4413017;32;316979;-86
2023/08/05 02:55:32;;;;;;;8.10;7.28;;;;;;;;;;4401021;32;350815;-86
2023/08/05 02:58:01;;;;;;;13.65;7.45;;;;;;;;;;4416072;32;349846;-86
2023/08/05 03:00:30;;;;;;;8.88;7.85;;;;;;;;;;4408633;32;317909;-86
2023/08/05 03:02:59;;;;;;;9.60;8.07;;;;;;;;;;4418767;32;316937;-89
2023/08/05 03:05:29;;;;;;;10.77;7.70;;;;;;;;;;4406713;32;316833;-87
2023/08/05 03:08:02;;;;;;;12.37;7.30;;;;;;;;;;4417206;32;317746;-84
2023/08/05 03:10:32;;;;;;;11.43;8.13;;;;;;;;;;4390303;32;317887;-86
2023/08/05 03:13:00;;;;;;;13.43;8.27;;;;;;;;;;4416292;32;317922;-90
2023/08/05 03:15:29;;;;;;;9.27;7.20;;;;;;;;;;4407673;32;317923;-83
2023/08/05 03:17:58;;;;;;;12.45;7.70;;;;;;;;;;4416722;32;316740;-86
2023/08/05 03:20:30;;;;;;;9.23;8.00;;;;;;;;;;4400347;32;316764;-85
2023/08/05 03:23:00;;;;;;;20.60;10.77;;;;;;;;;;4416419;32;316776;-84
2023/08/05 03:25:29;;;;;;;13.10;9.27;;;;;;;;;;4400827;32;318282;-86
2023/08/05 03:27:57;;;;;;;9.52;8.45;;;;;;;;;;4417923;32;317527;-85
2023/08/05 03:30:27;;;;;;;9.85;8.82;;;;;;;;;;4402992;32;315595;-86
2023/08/05 03:32:54;;;;;;;10.80;8.93;;;;;;;;;;4415761;32;316072;-86
2023/08/05 03:35:23;;;;;;;8.97;7.97;;;;;;;;;;4403420;32;343379;-86
2023/08/05 03:37:53;;;;;;;8.80;7.90;;;;;;;;;;4415471;32;316395;-85
2023/08/05 03:40:21;;;;;;;10.52;7.60;;;;;;;;;;4404096;32;317218;-87
2023/08/05 03:42:51;;;;;;;11.45;8.07;;;;;;;;;;4416536;32;317695;-89
2023/08/05 03:45:19;;;;;;;10.48;7.53;;;;;;;;;;4405484;32;318310;-86
2023/08/05 03:47:49;;;;;;;10.45;7.70;;;;;;;;;;4417277;32;317897;-85
2023/08/05 03:50:20;;;;;;;10.40;8.48;;;;;;;;;;4398282;32;317911;-89
2023/08/05 03:52:48;;;;;;;11.15;8.23;;;;;;;;;;4415417;32;317822;-87
2023/08/05 03:55:19;;;;;;;16.20;8.70;;;;;;;;;;4395591;32;317602;-83
2023/08/05 03:57:47;;;;;;;11.40;8.73;;;;;;;;;;4416400;32;316816;-83
2023/08/05 04:00:22;;;;;;;19.12;9.50;;;;;;;;;;4390877;32;317955;-82
2023/08/05 04:02:50;;;;;;;13.35;8.95;;;;;;;;;;4415060;32;318228;-83
2023/08/05 04:05:36;;;;;;;14.63;8.38;;;;;;;;;;4405158;32;317997;-89
2023/08/05 04:08:07;;;;;;;9.43;7.60;;;;;;;;;;4403218;32;317417;-85
2023/08/05 04:10:38;;;;;;;11.98;8.10;;;;;;;;;;4398028;32;415546;-83
2023/08/05 04:13:06;;;;;;;11.12;8.88;;;;;;;;;;4403631;32;316842;-84
2023/08/05 04:15:36;;;;;;;12.88;8.20;;;;;;;;;;4389287;32;389377;-86
2023/08/05 04:18:07;;;;;;;10.88;9.15;;;;;;;;;;4397143;32;318163;-86
2023/08/05 04:20:38;;;;;;;11.05;8.13;;;;;;;;;;4398488;32;389201;-86
2023/08/05 04:23:09;;;;;;;9.65;8.13;;;;;;;;;;4415436;32;316916;-85
2023/08/05 04:25:38;;;;;;;10.05;9.05;;;;;;;;;;4397640;32;416291;-84
2023/08/05 04:28:08;;;;;;;19.12;9.57;;;;;;;;;;4416551;32;317708;-86
2023/08/05 04:30:39;;;;;;;11.10;8.75;;;;;;;;;;4400491;32;388512;-86
2023/08/05 04:33:06;;;;;;;13.73;9.63;;;;;;;;;;4413687;32;317524;-86
2023/08/05 04:35:34;;;;;;;13.13;8.40;;;;;;;;;;4397762;32;416777;-87
2023/08/05 04:38:08;;;;;;;9.63;8.63;;;;;;;;;;4414127;32;316938;-86
2023/08/05 04:40:41;;;;;;;10.30;8.75;;;;;;;;;;4399321;32;414928;-88
2023/08/05 04:43:12;;;;;;;10.35;9.35;;;;;;;;;;4398241;32;398197;-87
2023/08/05 04:45:42;;;;;;;12.45;9.20;;;;;;;;;;4413133;32;317519;-87
2023/08/05 04:48:12;;;;;;;13.25;9.48;;;;;;;;;;4399823;32;317734;-84
2023/08/05 04:50:40;;;;;;;12.45;9.98;;;;;;;;;;4412572;32;316482;-82
2023/08/05 04:53:08;;;;;;;12.48;10.16;;;;;;;;;;4413813;32;318166;-81
2023/08/05 04:55:37;;;;;;;10.32;9.32;;;;;;;;;;4416678;32;318834;-82
2023/08/05 04:58:05;;;;;;;11.10;9.95;;;;;;;;;;4416320;32;316554;-86
2023/08/05 05:00:32;;;;;;;15.05;9.57;;;;;;;;;;4406000;32;316643;-86
2023/08/05 05:03:00;;;;;;;12.40;9.80;;;;;;;;;;4414230;32;351917;-86
2023/08/05 05:05:27;;;;;;;15.50;10.20;;;;;;;;;;4405735;32;317682;-86
2023/08/05 05:07:55;;;;;;;14.05;10.88;;;;;;;;;;4413655;32;342877;-84
2023/08/05 05:10:22;;;;;;;13.80;11.00;;;;;;;;;;4404738;32;318582;-85
2023/08/05 05:12:57;;;;;;;14.20;12.50;;;;;;;;;;4415502;32;318793;-84
2023/08/05 05:15:24;;;;;;;21.20;15.27;;;;;;;;;;4395612;32;318511;-85
2023/08/05 05:17:52;;;;;;;12.35;11.05;;;;;;;;;;4415975;32;318734;-89
2023/08/05 05:20:19;;;;;;;14.43;11.10;;;;;;;;;;4404466;32;317733;-90
2023/08/05 05:22:46;;;;;;;16.02;10.10;;;;;;;;;;4416111;32;317727;-86
2023/08/05 05:25:14;;;;;;;17.85;9.20;;;;;;;;;;4404087;32;318800;-86
2023/08/05 05:27:41;;;;;;;22.37;10.25;;;;;;;;;;4415238;32;318045;-86
2023/08/05 05:30:11;;;;;;;12.13;8.70;;;;;;;;;;4400901;32;318941;-87
2023/08/05 05:32:39;;;;;;;10.65;9.18;;;;;;;;;;4415117;32;317611;-84
2023/08/05 05:35:07;;;;;;;14.38;9.35;;;;;;;;;;4416288;32;317597;-89
2023/08/05 05:37:35;;;;;;;11.43;9.75;;;;;;;;;;4402381;32;417080;-90
2023/08/05 05:40:02;;;;;;;11.82;9.80;;;;;;;;;;4414532;32;316489;-88
2023/08/05 05:42:30;;;;;;;12.10;10.40;;;;;;;;;;4403932;32;325635;-87
2023/08/05 05:44:59;;;;;;;13.48;11.35;;;;;;;;;;4414740;32;318793;-86
2023/08/05 05:47:28;;;;;;;14.40;10.80;;;;;;;;;;4396404;32;318788;-89
2023/08/05 05:49:55;;;;;;;14.20;10.00;;;;;;;;;;4414839;32;318752;-87
2023/08/05 05:52:23;;;;;;;14.07;10.77;;;;;;;;;;4404123;32;319076;-87
2023/08/05 05:54:51;;;;;;;16.42;10.43;;;;;;;;;;4415508;32;318796;-87
2023/08/05 05:57:19;;;;;;;15.55;10.23;;;;;;;;;;4403299;32;355015;-81
2023/08/05 05:59:46;;;;;;;12.00;9.75;;;;;;;;;;4416178;32;318888;-83
2023/08/05 06:02:14;;;;;;;23.50;11.63;;;;;;;;;;4405921;32;317794;-84
2023/08/05 06:04:47;;;;;;;23.20;10.60;;;;;;;;;;4416326;32;318627;-88
2023/08/05 06:07:16;;;;;;;11.05;9.70;;;;;;;;;;4404368;32;318857;-84
2023/08/05 06:09:43;;;;;;;12.98;10.00;;;;;;;;;;4414831;32;317932;-84
2023/08/05 06:12:11;;;;;;;16.25;9.05;;;;;;;;;;4405069;32;318724;-85
2023/08/05 06:14:38;;;;;;;17.70;10.43;;;;;;;;;;4414323;32;317718;-83
2023/08/05 06:17:09;;;;;;;16.25;10.43;;;;;;;;;;4415717;32;318655;-80
2023/08/05 06:19:36;;;;;;;28.92;9.60;;;;;;;;;;4399960;32;418437;-81
2023/08/05 06:22:06;;;;;;;15.77;10.52;;;;;;;;;;4415147;32;316625;-83
2023/08/05 06:24:34;;;;;;;18.62;10.35;;;;;;;;;;4401991;32;418910;-79
2023/08/05 06:27:01;;;;;;;16.10;9.45;;;;;;;;;;4414026;32;319212;-81
2023/08/05 06:29:29;;;;;;;11.95;9.45;;;;;;;;;;4404953;32;317856;-81
2023/08/05 06:31:56;;;;;;;17.77;10.02;;;;;;;;;;4414231;32;316637;-82
2023/08/05 06:34:24;;;;;;;20.73;10.82;;;;;;;;;;4405624;32;318851;-81
2023/08/05 06:36:51;;;;;;;18.17;9.77;;;;;;;;;;4413050;32;352161;-81
2023/08/05 06:39:20;;;;;;;11.52;10.05;;;;;;;;;;4397173;32;333203;-82
2023/08/05 06:41:49;;;;;;;13.90;10.15;;;;;;;;;;4417109;32;317709;-85
2023/08/05 06:44:16;;;;;;;12.37;9.45;;;;;;;;;;4406119;32;318955;-83
2023/08/05 06:46:44;;;;;;;12.40;9.93;;;;;;;;;;4415709;32;317713;-84
2023/08/05 06:49:12;;;;;;;15.20;11.10;;;;;;;;;;4407304;32;317848;-79
2023/08/05 06:51:39;;;;;;;18.70;11.12;;;;;;;;;;4416464;32;319106;-80
2023/08/05 06:54:10;;;;;;;21.05;11.48;;;;;;;;;;4417877;32;318935;-81
2023/08/05 06:56:39;;;;;;;29.75;12.73;;;;;;;;;;4404720;32;418102;-87
2023/08/05 06:59:07;;;;;;;20.62;12.07;;;;;;;;;;4417719;32;317922;-85
2023/08/05 07:01:34;;;;;;;24.37;13.45;;;;;;;;;;4403626;32;418416;-85
2023/08/05 07:04:01;;;;;;;29.65;12.48;;;;;;;;;;4416764;32;318221;-85
2023/08/05 07:06:29;;;;;;;26.15;15.38;;;;;;;;;;4407720;32;318910;-84
2023/08/05 07:08:56;;;;;;;22.50;14.48;;;;;;;;;;4415748;32;318781;-86
2023/08/05 07:11:24;;;;;;;24.27;12.27;;;;;;;;;;4407280;32;319066;-84
2023/08/05 07:13:53;;;;;;;22.73;13.75;;;;;;;;;;4416034;32;318664;-80
2023/08/05 07:16:20;;;;;;;22.60;12.40;;;;;;;;;;4406974;32;319210;-85
2023/08/05 07:18:48;;;;;;;13.60;11.35;;;;;;;;;;4418556;32;318674;-87
2023/08/05 07:21:23;;;;;;;15.10;10.98;;;;;;;;;;4405678;32;319296;-84
2023/08/05 07:23:51;;;;;;;17.70;11.52;;;;;;;;;;4417796;32;318716;-83
2023/08/05 07:26:19;;;;;;;21.85;13.35;;;;;;;;;;4406958;32;319061;-84
2023/08/05 07:28:48;;;;;;;19.27;12.00;;;;;;;;;;4415718;32;319118;-83
2023/08/05 07:31:17;;;;;;;18.67;11.95;;;;;;;;;;4406882;32;319120;-84
2023/08/05 07:33:46;;;;;;;15.57;11.02;;;;;;;;;;4418023;32;317741;-84
2023/08/05 07:36:16;;;;;;;15.27;11.82;;;;;;;;;;4406262;32;318851;-85
2023/08/05 07:38:45;;;;;;;16.62;11.32;;;;;;;;;;4405617;32;318857;-82
2023/08/05 07:41:13;;;;;;;14.70;10.45;;;;;;;;;;4403328;32;318713;-80
2023/08/05 07:43:42;;;;;;;17.23;10.75;;;;;;;;;;4418048;32;318718;-80
2023/08/05 07:46:12;;;;;;;16.35;11.73;;;;;;;;;;4403636;32;357354;-82
2023/08/05 07:48:42;;;;;;;11.75;10.55;;;;;;;;;;4416603;32;353521;-81
2023/08/05 07:51:10;;;;;;;15.27;10.57;;;;;;;;;;4400705;32;354630;-79
2023/08/05 07:53:37;;;;;;;18.65;10.43;;;;;;;;;;4415645;32;334941;-84
2023/08/05 07:56:12;;;;;;;11.55;9.98;;;;;;;;;;4417748;32;318932;-80
2023/08/05 07:58:45;;;;;;;22.85;11.25;;;;;;;;;;4404196;32;417590;-80
2023/08/05 08:01:16;;;;;;;12.45;9.90;;;;;;;;;;4402355;32;319307;-85
2023/08/05 08:03:45;;;;;;;19.27;9.80;;;;;;;;;;4416411;32;317714;-82
2023/08/05 08:06:15;;;;;;;10.82;8.68;;;;;;;;;;4407288;32;317724;-83
2023/08/05 08:08:44;;;;;;;11.55;10.07;;;;;;;;;;4417406;32;317835;-82
2023/08/05 08:11:11;;;;;;;14.75;10.27;;;;;;;;;;4404294;32;318982;-84
2023/08/05 08:13:39;;;;;;;13.02;9.73;;;;;;;;;;4416863;32;319016;-82
2023/08/05 08:16:08;;;;;;;13.05;10.25;;;;;;;;;;4416739;32;317926;-81
2023/08/05 08:18:37;;;;;;;10.13;8.32;;;;;;;;;;4403790;32;417810;-83
2023/08/05 08:21:07;;;;;;;9.98;8.93;;;;;;;;;;4416696;32;317975;-87
2023/08/05 08:23:35;;;;;;;10.13;9.10;;;;;;;;;;4402273;32;416005;-86
2023/08/05 08:26:02;;;;;;;14.07;9.50;;;;;;;;;;4416966;32;317916;-84
2023/08/05 08:28:30;;;;;;;9.05;7.93;;;;;;;;;;4405573;32;317801;-85
2023/08/05 08:30:59;;;;;;;11.93;9.40;;;;;;;;;;4416813;32;334411;-85
2023/08/05 08:33:27;;;;;;;12.50;9.65;;;;;;;;;;4405032;32;317931;-85
2023/08/05 08:35:55;;;;;;;11.73;8.95;;;;;;;;;;4416957;32;317985;-85
2023/08/05 08:38:24;;;;;;;11.32;9.05;;;;;;;;;;4405633;32;318028;-85
2023/08/05 08:40:53;;;;;;;11.30;8.55;;;;;;;;;;4414364;32;317996;-85
2023/08/05 08:43:21;;;;;;;14.18;8.18;;;;;;;;;;4406132;32;317628;-85
2023/08/05 08:45:51;;;;;;;16.00;9.10;;;;;;;;;;4415911;32;317597;-85
2023/08/05 08:48:19;;;;;;;11.52;9.35;;;;;;;;;;4406464;32;317850;-84
2023/08/05 08:50:48;;;;;;;14.87;9.70;;;;;;;;;;4415680;32;317808;-85
2023/08/05 08:53:16;;;;;;;10.27;8.57;;;;;;;;;;4402890;32;342667;-85
2023/08/05 08:55:45;;;;;;;29.30;9.77;;;;;;;;;;4415016;32;317989;-85
2023/08/05 08:58:13;;;;;;;11.05;8.77;;;;;;;;;;4404838;32;318003;-84
2023/08/05 09:00:41;;;;;;;9.60;8.32;;;;;;;;;;4415658;32;317772;-83
2023/08/05 09:03:12;;;;;;;11.93;8.68;;;;;;;;;;4400332;32;316875;-81
2023/08/05 09:05:44;;;;;;;11.25;8.65;;;;;;;;;;4415891;32;327568;-85
2023/08/05 09:08:11;;;;;;;12.00;8.63;;;;;;;;;;4405052;32;343485;-83
2023/08/05 09:10:39;;;;;;;11.80;8.88;;;;;;;;;;4417250;32;317873;-82
2023/08/05 09:13:08;;;;;;;9.38;8.38;;;;;;;;;;4415885;32;317884;-82
2023/08/05 09:15:38;;;;;;;10.38;8.32;;;;;;;;;;4403113;32;416411;-85
2023/08/05 09:18:08;;;;;;;9.65;8.43;;;;;;;;;;4413748;32;317961;-84
2023/08/05 09:20:36;;;;;;;13.52;9.60;;;;;;;;;;4402345;32;418937;-83
2023/08/05 09:23:06;;;;;;;12.23;8.68;;;;;;;;;;4414267;32;317784;-83
2023/08/05 09:26:18;;;;;;;21.23;7.53;;;;;;;;;;4401510;32;419883;-83
2023/08/05 09:28:55;;;;;;;9.50;7.93;;;;;;;;;;4370555;32;419352;-86
2023/08/05 09:31:23;;;;;;;9.70;7.18;;;;;;;;;;4404450;32;316765;-85
2023/08/05 09:33:51;;;;;;;10.00;7.97;;;;;;;;;;4415477;32;316955;-84
2023/08/05 09:36:22;;;;;;;8.95;7.22;;;;;;;;;;4405230;32;346803;-86
2023/08/05 09:39:03;;;;;;;21.10;15.48;;;;;;;;;;4416570;32;316864;-86
2023/08/05 09:41:31;;;;;;;11.02;8.70;;;;;;;;;;4405059;32;319679;-84
2023/08/05 09:44:01;;;;;;;10.20;6.93;;;;;;;;;;4417073;32;317729;-86
2023/08/05 09:46:39;;;;;;;7.82;6.57;;;;;;;;;;4406374;32;318058;-83
2023/08/05 09:49:08;;;;;;;11.27;6.80;;;;;;;;;;4415592;32;316896;-85
2023/08/05 09:51:35;;;;;;;12.80;9.23;;;;;;;;;;4398184;32;417343;-84
2023/08/05 09:54:08;;;;;;;10.80;6.97;;;;;;;;;;4416573;32;317881;-84
2023/08/05 09:56:37;;;;;;;14.90;7.00;;;;;;;;;;4403329;32;419822;-85
2023/08/05 09:59:08;;;;;;;8.35;6.03;;;;;;;;;;4415778;32;318144;-82
2023/08/05 10:01:36;;;;;;;7.35;6.40;;;;;;;;;;4401758;32;416357;-84
2023/08/05 10:04:05;;;;;;;11.27;7.30;;;;;;;;;;4414159;32;317009;-82
2023/08/05 10:06:38;;;;;;;17.23;6.95;;;;;;;;;;4400799;32;417340;-82
2023/08/05 10:09:07;;;;;;;9.43;7.37;;;;;;;;;;4415646;32;318169;-82
2023/08/05 10:11:37;;;;;;;10.35;5.60;;;;;;;;;;4403698;32;387177;-82
2023/08/05 10:14:08;;;;;;;8.93;5.25;;;;;;;;;;4419111;32;318249;-83
2023/08/05 10:16:39;;;;;;;7.05;4.35;;;;;;;;;;4407084;32;387261;-83
2023/08/05 10:19:06;;;;;;;8.77;3.92;;;;;;;;;;4419527;32;316400;-84
2023/08/05 10:21:37;;;;;;;6.32;3.80;;;;;;;;;;4403434;32;414674;-82
2023/08/05 10:24:05;;;;;;;9.68;4.35;;;;;;;;;;4419451;32;316655;-83
2023/08/05 10:26:43;;;;;;;5.32;4.12;;;;;;;;;;4405145;32;416165;-85
2023/08/05 10:29:30;;;;;;;11.40;3.90;;;;;;;;;;4408864;32;316966;-85
2023/08/05 10:32:11;;;;;;;5.37;3.90;;;;;;;;;;4418584;32;317838;-85
2023/08/05 10:34:38;;;;;;;5.12;4.53;;;;;;;;;;4404580;32;417084;-84
2023/08/05 10:37:06;;;;;;;12.52;4.18;;;;;;;;;;4417305;32;315749;-85
2023/08/05 10:39:46;;;;;;;4.50;4.05;;;;;;;;;;4405200;32;417250;-85
2023/08/05 10:42:20;;;;;;;4.30;3.78;;;;;;;;;;4407249;32;316756;-85
2023/08/05 10:44:51;;;;;;;5.25;3.83;;;;;;;;;;4418095;32;316612;-85
2023/08/05 10:47:22;;;;;;;12.77;5.57;;;;;;;;;;4406125;32;316884;-84
2023/08/05 10:49:51;;;;;;;7.12;4.40;;;;;;;;;;4419038;32;317704;-84
2023/08/05 10:52:21;;;;;;;6.40;4.23;;;;;;;;;;4405373;32;316694;-82
2023/08/05 10:54:50;;;;;;;4.28;3.78;;;;;;;;;;4417251;32;316839;-82
2023/08/05 10:57:45;;;;;;;9.65;5.00;;;;;;;;;;4406695;32;316846;-83
2023/08/05 11:00:22;;;;;;;7.12;4.25;;;;;;;;;;4405941;32;317389;-82
2023/08/05 11:02:50;;;;;;;6.70;4.07;;;;;;;;;;4416681;32;316878;-82
2023/08/05 11:05:18;;;;;;;6.55;4.62;;;;;;;;;;4406871;32;316653;-84
2023/08/05 11:07:47;;;;;;;6.22;3.53;;;;;;;;;;4417254;32;316572;-84
2023/08/05 11:10:14;;;;;;;5.03;4.03;;;;;;;;;;4408457;32;316981;-85
2023/08/05 11:12:42;;;;;;;6.60;4.15;;;;;;;;;;4416558;32;316866;-84
2023/08/05 11:15:10;;;;;;;3.78;3.47;;;;;;;;;;4407989;32;316822;-84
2023/08/05 11:17:57;;;;;;;8.88;4.05;;;;;;;;;;4417224;32;316699;-83
2023/08/05 11:20:32;;;;;;;6.20;4.18;;;;;;;;;;4406326;32;316784;-83
2023/08/05 11:23:00;;;;;;;3.53;3.22;;;;;;;;;;4417368;32;316805;-81
2023/08/05 11:25:29;;;;;;;7.40;4.00;;;;;;;;;;4407439;32;316852;-82
2023/08/05 11:27:58;;;;;;;5.07;4.55;;;;;;;;;;4418042;32;316832;-82
2023/08/05 11:30:25;;;;;;;8.15;4.35;;;;;;;;;;4407644;32;316391;-83
2023/08/05 11:32:55;;;;;;;8.20;4.20;;;;;;;;;;4417905;32;316648;-84
2023/08/05 11:35:25;;;;;;;7.12;4.60;;;;;;;;;;4406230;32;345002;-84
2023/08/05 11:37:53;;;;;;;5.30;4.28;;;;;;;;;;4416302;32;316697;-83
2023/08/05 11:40:21;;;;;;;8.70;4.05;;;;;;;;;;4408269;32;316591;-83
2023/08/05 11:42:48;;;;;;;9.45;4.53;;;;;;;;;;4409370;32;317117;-83
2023/08/05 11:45:17;;;;;;;6.70;4.62;;;;;;;;;;4406803;32;316708;-83
2023/08/05 11:47:45;;;;;;;6.05;4.35;;;;;;;;;;4416379;32;316722;-84
2023/08/05 11:50:14;;;;;;;11.93;3.67;;;;;;;;;;4405283;32;316868;-85
2023/08/05 11:52:43;;;;;;;4.80;4.00;;;;;;;;;;4416870;32;318007;-84
2023/08/05 11:55:11;;;;;;;5.30;4.15;;;;;;;;;;4407561;32;320122;-84
2023/08/05 11:57:39;;;;;;;5.28;4.03;;;;;;;;;;4416997;32;316747;-83
2023/08/05 12:00:08;;;;;;;4.20;3.80;;;;;;;;;;4417965;32;316698;-84
2023/08/05 12:02:37;;;;;;;6.87;4.32;;;;;;;;;;4404062;32;415724;-84
2023/08/05 12:05:06;;;;;;;4.50;3.55;;;;;;;;;;4418112;32;316679;-84
2023/08/05 12:07:40;;;;;;;4.37;3.90;;;;;;;;;;4404989;32;416299;-84
2023/08/05 12:10:13;;;;;;;6.28;3.90;;;;;;;;;;4416191;32;357856;-83
2023/08/05 12:12:45;;;;;;;7.78;3.80;;;;;;;;;;4402961;32;416586;-84
2023/08/05 12:15:13;;;;;;;3.85;3.37;;;;;;;;;;4407338;32;316461;-83
2023/08/05 12:17:46;;;;;;;4.72;2.90;;;;;;;;;;4416671;32;316578;-82
2023/08/05 12:20:18;;;;;;;6.43;3.72;;;;;;;;;;4405075;32;316886;-82
2023/08/05 12:22:45;;;;;;;7.12;3.22;;;;;;;;;;4416106;32;316450;-81
2023/08/05 12:25:15;;;;;;;6.22;4.03;;;;;;;;;;4406350;32;316560;-81
2023/08/05 12:27:43;;;;;;;4.05;3.67;;;;;;;;;;4417065;32;316663;-82
2023/08/05 12:30:12;;;;;;;3.70;3.28;;;;;;;;;;4406039;32;317229;-84
2023/08/05 12:32:39;;;;;;;4.40;3.78;;;;;;;;;;4416937;32;316642;-83
2023/08/05 12:35:09;;;;;;;6.78;3.70;;;;;;;;;;4416988;32;316675;-82
2023/08/05 12:37:38;;;;;;;5.50;3.50;;;;;;;;;;4404004;32;416476;-83
2023/08/05 12:40:08;;;;;;;3.85;3.40;;;;;;;;;;4416252;32;316675;-82
2023/08/05 12:42:37;;;;;;;13.00;4.30;;;;;;;;;;4403751;32;415967;-81
2023/08/05 12:45:07;;;;;;;8.23;3.40;;;;;;;;;;4415366;32;341620;-82
2023/08/05 12:47:34;;;;;;;8.68;3.60;;;;;;;;;;4403694;32;415285;-83
2023/08/05 12:50:02;;;;;;;7.32;3.42;;;;;;;;;;4416368;32;316823;-80
2023/08/05 12:52:30;;;;;;;10.50;3.90;;;;;;;;;;4407008;32;316636;-85
2023/08/05 12:54:58;;;;;;;4.15;3.75;;;;;;;;;;4417209;32;317593;-82
2023/08/05 12:57:26;;;;;;;4.87;3.80;;;;;;;;;;4406271;32;316595;-82
2023/08/05 12:59:55;;;;;;;4.25;3.50;;;;;;;;;;4416916;32;316663;-82
2023/08/05 13:02:23;;;;;;;6.30;3.65;;;;;;;;;;4406154;32;316585;-82
2023/08/05 13:04:51;;;;;;;3.97;3.58;;;;;;;;;;4415489;32;322591;-81
2023/08/05 13:07:19;;;;;;;9.27;4.35;;;;;;;;;;4406628;32;316957;-82
2023/08/05 13:09:47;;;;;;;5.43;4.50;;;;;;;;;;4416498;32;316662;-82
2023/08/05 13:12:14;;;;;;;5.45;3.53;;;;;;;;;;4405699;32;316543;-82
2023/08/05 13:14:43;;;;;;;5.40;3.62;;;;;;;;;;4417025;32;316900;-82
2023/08/05 13:17:12;;;;;;;4.70;3.65;;;;;;;;;;4405424;32;316884;-85
2023/08/05 13:19:39;;;;;;;9.50;4.18;;;;;;;;;;4415912;32;316705;-83
2023/08/05 13:22:07;;;;;;;9.07;4.20;;;;;;;;;;4415238;32;316684;-82
2023/08/05 13:24:34;;;;;;;6.72;4.10;;;;;;;;;;4403372;32;416115;-84
2023/08/05 13:27:02;;;;;;;7.37;4.82;;;;;;;;;;4417339;32;316631;-83
2023/08/05 13:29:29;;;;;;;7.47;3.78;;;;;;;;;;4410808;32;316995;-85
2023/08/05 13:31:57;;;;;;;4.65;3.62;;;;;;;;;;4427364;32;316571;-85
2023/08/05 13:34:26;;;;;;;4.53;3.58;;;;;;;;;;4415149;32;316628;-84
2023/08/05 13:36:54;;;;;;;5.20;3.50;;;;;;;;;;4415363;32;316792;-86
2023/08/05 13:39:22;;;;;;;4.70;3.97;;;;;;;;;;4407386;32;316930;-85
2023/08/05 13:41:56;;;;;;;6.03;3.62;;;;;;;;;;4416872;32;356077;-85
2023/08/05 13:44:25;;;;;;;6.68;4.57;;;;;;;;;;4404478;32;316786;-82
2023/08/05 13:46:53;;;;;;;8.98;4.50;;;;;;;;;;4415312;32;316710;-81
2023/08/05 13:49:21;;;;;;;4.30;3.90;;;;;;;;;;4407616;32;317048;-81
2023/08/05 13:51:50;;;;;;;4.32;3.92;;;;;;;;;;4418737;32;316699;-81
2023/08/05 13:54:18;;;;;;;4.65;3.72;;;;;;;;;;4406818;32;316589;-81
2023/08/05 13:56:45;;;;;;;4.37;3.90;;;;;;;;;;4418889;32;316958;-83
2023/08/05 13:59:13;;;;;;;6.65;3.90;;;;;;;;;;4405441;32;316488;-83
2023/08/05 14:01:43;;;;;;;3.92;3.55;;;;;;;;;;4418039;32;316788;-82
2023/08/05 14:04:11;;;;;;;5.28;4.45;;;;;;;;;;4405377;32;316792;-84
2023/08/05 14:06:39;;;;;;;4.43;3.65;;;;;;;;;;4418864;32;317101;-83
2023/08/05 14:09:09;;;;;;;5.62;4.05;;;;;;;;;;4418891;32;316693;-83
2023/08/05 14:11:38;;;;;;;7.00;4.18;;;;;;;;;;4405264;32;417088;-83
2023/08/05 14:14:05;;;;;;;7.55;4.22;;;;;;;;;;4418963;32;316553;-84
2023/08/05 14:16:35;;;;;;;4.93;4.10;;;;;;;;;;4407228;32;328126;-82
2023/08/05 14:19:03;;;;;;;31.17;4.10;;;;;;;;;;4418481;32;316741;-81
2023/08/05 14:21:30;;;;;;;4.07;3.55;;;;;;;;;;4406998;32;317624;-81
2023/08/05 14:23:58;;;;;;;4.70;3.92;;;;;;;;;;4417640;32;316875;-81
2023/08/05 14:26:27;;;;;;;8.27;4.53;;;;;;;;;;4407928;32;316713;-81
2023/08/05 14:28:54;;;;;;;7.90;4.30;;;;;;;;;;4419235;32;316652;-81
2023/08/05 14:31:22;;;;;;;7.00;4.40;;;;;;;;;;4405820;32;316595;-82
2023/08/05 14:33:51;;;;;;;4.37;3.92;;;;;;;;;;4416407;32;316760;-84